Time;durP1;ratioP1;P1;durP2;ratioP2;P2;SDS_P1;SDS_P2;PMS_P1;PMS_P2;Temp;Humidity;BMP_temperature;BMP_pressure;BME280_temperature;BME280_humidity;BME280_pressure;Samples;Min_cycle;Max_cycle;Signal;HPM_P1;HPM_P2
2022/08/14 00:01:05;;;;;;;7.38;4.30;;;;;;;;;;5042306;28;20553;-67
2022/08/14 00:03:31;;;;;;;5.15;4.18;;;;;;;;;;5041983;28;20049;-67
2022/08/14 00:05:59;;;;;;;5.55;3.97;;;;;;;;;;5042313;28;21191;-68
2022/08/14 00:08:25;;;;;;;5.60;3.83;;;;;;;;;;5024117;28;20057;-66
2022/08/14 00:10:51;;;;;;;4.50;4.10;;;;;;;;;;5042248;28;20426;-66
2022/08/14 00:13:19;;;;;;;11.82;4.10;;;;;;;;;;5041889;28;20518;-68
2022/08/14 00:15:48;;;;;;;4.05;3.58;;;;;;;;;;5040107;28;20052;-68
2022/08/14 00:18:18;;;;;;;5.55;4.05;;;;;;;;;;5041664;28;20059;-68
2022/08/14 00:20:45;;;;;;;5.55;4.00;;;;;;;;;;5041672;28;20523;-68
2022/08/14 00:23:12;;;;;;;4.80;3.83;;;;;;;;;;5042398;28;20562;-69
2022/08/14 00:25:38;;;;;;;5.03;3.72;;;;;;;;;;5040970;28;20076;-68
2022/08/14 00:28:06;;;;;;;4.30;3.72;;;;;;;;;;5040487;28;20163;-67
2022/08/14 00:30:32;;;;;;;4.28;3.50;;;;;;;;;;5041924;28;21415;-67
2022/08/14 00:32:57;;;;;;;8.45;4.13;;;;;;;;;;5041610;28;20044;-69
2022/08/14 00:35:23;;;;;;;3.70;3.13;;;;;;;;;;5041793;28;20613;-68
2022/08/14 00:37:49;;;;;;;5.43;3.72;;;;;;;;;;5041993;28;20045;-68
2022/08/14 00:40:16;;;;;;;5.40;3.88;;;;;;;;;;5041064;28;20083;-67
2022/08/14 00:42:42;;;;;;;4.15;3.30;;;;;;;;;;5041480;28;20091;-68
2022/08/14 00:45:11;;;;;;;4.32;3.92;;;;;;;;;;5041179;28;20094;-68
2022/08/14 00:47:37;;;;;;;5.35;3.42;;;;;;;;;;5041244;28;20057;-68
2022/08/14 00:50:06;;;;;;;5.57;3.72;;;;;;;;;;5042001;28;20049;-69
2022/08/14 00:52:31;;;;;;;5.15;3.50;;;;;;;;;;5041636;28;20056;-69
2022/08/14 00:54:58;;;;;;;5.15;3.63;;;;;;;;;;5041650;28;21031;-68
2022/08/14 00:57:30;;;;;;;3.92;3.40;;;;;;;;;;5041364;28;20052;-69
2022/08/14 00:59:56;;;;;;;4.18;3.70;;;;;;;;;;5042217;28;20088;-68
2022/08/14 01:02:24;;;;;;;3.60;3.30;;;;;;;;;;5040639;28;20056;-68
2022/08/14 01:04:52;;;;;;;8.88;4.00;;;;;;;;;;5041290;28;20621;-68
2022/08/14 01:07:19;;;;;;;3.90;3.47;;;;;;;;;;5041002;28;20102;-68
2022/08/14 01:09:57;;;;;;;6.18;3.67;;;;;;;;;;5041287;28;20084;-67
2022/08/14 01:12:25;;;;;;;4.43;3.22;;;;;;;;;;5040615;28;20095;-69
2022/08/14 01:14:54;;;;;;;3.45;2.85;;;;;;;;;;5041045;28;20136;-67
2022/08/14 01:21:02;;;;;;;6.00;3.20;;;;;;;;;;5040115;28;20044;-69
2022/08/14 01:22:54;;;;;;;3.38;3.00;;;;;;;;;;5039725;28;20093;-67
2022/08/14 01:25:20;;;;;;;5.15;3.42;;;;;;;;;;5039445;28;20132;-66
2022/08/14 01:27:45;;;;;;;4.55;3.08;;;;;;;;;;5041038;28;20419;-68
2022/08/14 01:30:11;;;;;;;5.07;3.28;;;;;;;;;;5040672;28;20495;-69
2022/08/14 01:32:37;;;;;;;3.45;3.10;;;;;;;;;;5040647;28;20131;-69
2022/08/14 01:35:07;;;;;;;4.72;3.55;;;;;;;;;;5039931;28;20087;-68
2022/08/14 01:37:32;;;;;;;5.97;3.30;;;;;;;;;;5040652;28;20045;-69
2022/08/14 01:39:58;;;;;;;7.07;3.78;;;;;;;;;;5040654;28;20652;-67
2022/08/14 01:42:23;;;;;;;9.80;3.65;;;;;;;;;;5041110;28;20057;-69
2022/08/14 01:44:51;;;;;;;5.93;3.63;;;;;;;;;;5040542;28;20860;-67
2022/08/14 01:47:17;;;;;;;4.32;3.80;;;;;;;;;;5042255;28;20049;-67
2022/08/14 01:49:44;;;;;;;5.53;3.42;;;;;;;;;;5033233;28;20059;-68
2022/08/14 01:52:09;;;;;;;5.45;3.67;;;;;;;;;;5040659;28;20483;-67
2022/08/14 01:54:35;;;;;;;7.13;4.50;;;;;;;;;;5041252;28;20063;-68
2022/08/14 01:57:01;;;;;;;4.85;4.20;;;;;;;;;;5039483;28;20156;-69
2022/08/14 01:59:32;;;;;;;6.25;4.60;;;;;;;;;;5039192;28;20044;-69
2022/08/14 02:02:00;;;;;;;6.55;3.97;;;;;;;;;;5040273;28;20147;-67
2022/08/14 02:04:34;;;;;;;4.40;4.00;;;;;;;;;;5039140;28;20045;-68
2022/08/14 02:07:02;;;;;;;5.25;4.60;;;;;;;;;;5040280;28;20055;-68
2022/08/14 02:09:30;;;;;;;4.63;4.20;;;;;;;;;;5039206;28;20045;-67
2022/08/14 02:11:55;;;;;;;8.35;4.57;;;;;;;;;;5040436;28;20063;-69
2022/08/14 02:14:22;;;;;;;4.70;4.07;;;;;;;;;;5040699;28;20048;-69
2022/08/14 02:16:51;;;;;;;7.28;4.22;;;;;;;;;;5039118;28;20052;-68
2022/08/14 02:19:25;;;;;;;4.88;4.07;;;;;;;;;;5043942;28;20060;-68
2022/08/14 02:21:54;;;;;;;5.63;4.32;;;;;;;;;;5042991;28;20052;-69
2022/08/14 02:24:22;;;;;;;7.10;3.70;;;;;;;;;;5044070;28;20144;-67
2022/08/14 02:26:48;;;;;;;8.20;3.05;;;;;;;;;;5043936;28;20550;-68
2022/08/14 02:29:17;;;;;;;4.57;3.90;;;;;;;;;;5041694;28;20053;-69
2022/08/14 02:31:46;;;;;;;3.97;3.63;;;;;;;;;;5043449;28;20053;-69
2022/08/14 02:34:28;;;;;;;7.78;3.97;;;;;;;;;;5043478;28;20055;-66
2022/08/14 02:36:57;;;;;;;9.48;4.18;;;;;;;;;;5043598;28;20053;-68
2022/08/14 02:39:23;;;;;;;8.07;4.55;;;;;;;;;;5043238;28;20060;-68
2022/08/14 02:41:50;;;;;;;9.27;4.60;;;;;;;;;;5041844;28;20049;-68
2022/08/14 02:44:19;;;;;;;6.90;4.80;;;;;;;;;;5043989;28;20059;-68
2022/08/14 02:46:45;;;;;;;4.72;4.15;;;;;;;;;;5043153;28;20063;-68
2022/08/14 02:49:11;;;;;;;6.45;4.28;;;;;;;;;;5043428;28;20041;-68
2022/08/14 02:51:37;;;;;;;5.75;4.30;;;;;;;;;;5041137;28;20450;-69
2022/08/14 02:54:06;;;;;;;4.85;3.83;;;;;;;;;;5043472;28;20048;-69
2022/08/14 02:56:31;;;;;;;4.60;3.85;;;;;;;;;;5041899;28;20049;-69
2022/08/14 02:59:00;;;;;;;4.47;4.07;;;;;;;;;;5043572;28;20526;-68
2022/08/14 03:01:27;;;;;;;4.25;3.85;;;;;;;;;;5042819;28;20037;-69
2022/08/14 03:03:54;;;;;;;14.25;4.22;;;;;;;;;;5041698;28;20053;-68
2022/08/14 03:06:22;;;;;;;6.45;4.20;;;;;;;;;;5043857;28;20056;-67
2022/08/14 03:08:48;;;;;;;4.47;4.07;;;;;;;;;;5047200;28;20083;-69
2022/08/14 03:11:13;;;;;;;5.65;3.78;;;;;;;;;;5046155;28;20056;-67
2022/08/14 03:13:43;;;;;;;5.13;4.20;;;;;;;;;;5042964;28;20060;-69
2022/08/14 03:16:14;;;;;;;9.68;4.20;;;;;;;;;;5042713;28;20049;-69
2022/08/14 03:18:41;;;;;;;4.57;3.93;;;;;;;;;;5043485;28;20053;-69
2022/08/14 03:21:12;;;;;;;4.70;3.80;;;;;;;;;;5043207;28;20279;-69
2022/08/14 03:23:42;;;;;;;4.10;3.70;;;;;;;;;;5042556;28;20407;-68
2022/08/14 03:26:13;;;;;;;4.05;3.75;;;;;;;;;;5042001;28;20404;-68
2022/08/14 03:28:41;;;;;;;4.97;4.47;;;;;;;;;;5042211;28;20045;-69
2022/08/14 03:31:07;;;;;;;4.57;4.05;;;;;;;;;;5040584;28;20052;-69
2022/08/14 03:33:36;;;;;;;4.38;3.85;;;;;;;;;;5042097;28;20053;-67
2022/08/14 03:36:11;;;;;;;4.10;3.70;;;;;;;;;;5042272;28;20064;-67
2022/08/14 03:38:43;;;;;;;5.13;3.30;;;;;;;;;;5043348;28;20565;-67
2022/08/14 03:41:15;;;;;;;3.58;3.28;;;;;;;;;;5041696;28;20126;-69
2022/08/14 03:43:41;;;;;;;5.85;3.53;;;;;;;;;;5041052;28;20158;-67
2022/08/14 03:46:09;;;;;;;3.30;3.00;;;;;;;;;;5042152;28;20037;-66
2022/08/14 03:48:34;;;;;;;5.88;3.40;;;;;;;;;;5041872;28;20041;-68
2022/08/14 03:51:00;;;;;;;3.97;3.53;;;;;;;;;;5023246;28;20080;-69
2022/08/14 03:53:25;;;;;;;3.95;3.45;;;;;;;;;;5041215;28;20052;-66
2022/08/14 03:55:55;;;;;;;4.00;3.65;;;;;;;;;;5041729;28;20091;-69
2022/08/14 03:58:21;;;;;;;3.78;3.38;;;;;;;;;;5041941;28;20076;-69
2022/08/14 04:00:46;;;;;;;5.65;3.83;;;;;;;;;;5039836;28;20134;-69
2022/08/14 04:03:13;;;;;;;5.57;3.70;;;;;;;;;;5042788;28;20072;-68
2022/08/14 04:05:41;;;;;;;4.35;3.90;;;;;;;;;;5041969;28;20384;-69
2022/08/14 04:08:08;;;;;;;7.18;3.42;;;;;;;;;;5042381;28;20960;-68
2022/08/14 04:10:33;;;;;;;4.13;3.83;;;;;;;;;;5044249;28;20510;-67
2022/08/14 04:13:04;;;;;;;4.88;4.47;;;;;;;;;;5046345;28;20067;-69
2022/08/14 04:15:32;;;;;;;6.37;3.77;;;;;;;;;;5045486;28;20124;-68
2022/08/14 04:18:02;;;;;;;5.30;3.60;;;;;;;;;;5042431;28;20198;-69
2022/08/14 04:20:28;;;;;;;4.95;3.38;;;;;;;;;;5039759;28;20060;-68
2022/08/14 04:22:53;;;;;;;4.30;3.53;;;;;;;;;;5042602;28;20041;-69
2022/08/14 04:25:19;;;;;;;4.78;3.42;;;;;;;;;;5041337;28;20466;-67
2022/08/14 04:27:45;;;;;;;3.58;3.25;;;;;;;;;;5040666;28;20047;-68
2022/08/14 04:30:11;;;;;;;4.03;3.63;;;;;;;;;;5040989;28;20392;-69
2022/08/14 04:32:36;;;;;;;3.65;3.35;;;;;;;;;;5040693;28;20056;-67
2022/08/14 04:35:02;;;;;;;3.95;3.55;;;;;;;;;;5041526;28;20091;-68
2022/08/14 04:45:41;;;;;;;4.57;3.67;;;;;;;;;;5041051;28;20074;-68
2022/08/14 04:48:11;;;;;;;5.63;3.80;;;;;;;;;;5040422;28;20039;-69
2022/08/14 04:50:40;;;;;;;3.78;3.47;;;;;;;;;;5043977;28;20041;-68
2022/08/14 04:53:05;;;;;;;4.82;3.60;;;;;;;;;;5043837;28;20041;-69
2022/08/14 04:55:32;;;;;;;7.25;3.40;;;;;;;;;;5041006;28;20056;-67
2022/08/14 04:57:58;;;;;;;5.40;3.80;;;;;;;;;;5040723;28;20052;-68
2022/08/14 05:00:23;;;;;;;4.78;3.20;;;;;;;;;;5041278;28;20052;-68
2022/08/14 05:02:49;;;;;;;4.30;3.80;;;;;;;;;;5042697;28;20049;-67
2022/08/14 05:05:16;;;;;;;7.25;3.63;;;;;;;;;;5045087;28;20053;-68
2022/08/14 05:07:41;;;;;;;3.80;3.40;;;;;;;;;;5045879;28;20060;-68
2022/08/14 05:10:07;;;;;;;7.22;3.58;;;;;;;;;;5026439;28;20107;-70
2022/08/14 05:12:33;;;;;;;4.15;3.78;;;;;;;;;;5040982;28;20080;-67
2022/08/14 05:14:59;;;;;;;4.65;4.03;;;;;;;;;;5039786;28;20136;-69
2022/08/14 05:17:25;;;;;;;5.10;3.78;;;;;;;;;;5039938;28;20519;-69
2022/08/14 05:19:51;;;;;;;3.60;3.30;;;;;;;;;;5040622;28;20394;-69
2022/08/14 05:22:18;;;;;;;5.47;3.20;;;;;;;;;;5040775;28;20045;-69
2022/08/14 05:24:44;;;;;;;4.30;3.03;;;;;;;;;;5040570;28;20139;-69
2022/08/14 05:27:10;;;;;;;3.90;2.90;;;;;;;;;;5039642;28;20462;-68
2022/08/14 05:29:35;;;;;;;2.90;2.70;;;;;;;;;;5040566;28;20053;-69
2022/08/14 05:32:06;;;;;;;4.70;2.97;;;;;;;;;;5043020;28;20056;-70
2022/08/14 05:34:32;;;;;;;4.28;3.15;;;;;;;;;;5040681;28;20041;-69
2022/08/14 05:37:01;;;;;;;5.65;3.00;;;;;;;;;;5040065;28;20875;-67
2022/08/14 05:39:27;;;;;;;3.10;2.80;;;;;;;;;;5040042;28;20140;-70
2022/08/14 05:41:53;;;;;;;3.15;2.85;;;;;;;;;;5038905;28;20558;-68
2022/08/14 05:44:19;;;;;;;3.88;2.90;;;;;;;;;;5022268;28;20055;-72
2022/08/14 05:46:44;;;;;;;3.28;2.88;;;;;;;;;;5039336;28;20041;-68
2022/08/14 05:49:10;;;;;;;3.28;2.92;;;;;;;;;;5039705;28;21050;-68
2022/08/14 05:51:35;;;;;;;3.45;2.65;;;;;;;;;;5038274;28;20049;-70
2022/08/14 05:54:01;;;;;;;5.45;2.80;;;;;;;;;;5044005;28;20107;-70
2022/08/14 05:56:26;;;;;;;3.35;3.00;;;;;;;;;;5044298;28;20055;-70
2022/08/14 05:58:53;;;;;;;8.40;3.00;;;;;;;;;;5044305;28;20057;-72
2022/08/14 06:01:18;;;;;;;4.72;3.20;;;;;;;;;;5044154;28;20051;-68
2022/08/14 06:03:44;;;;;;;3.38;3.00;;;;;;;;;;5042910;28;20048;-70
2022/08/14 06:06:09;;;;;;;3.25;2.92;;;;;;;;;;5044252;28;20049;-68
2022/08/14 06:08:35;;;;;;;3.88;2.97;;;;;;;;;;5044260;28;20984;-69
2022/08/14 06:11:04;;;;;;;4.15;3.00;;;;;;;;;;5025835;28;20060;-71
2022/08/14 06:13:41;;;;;;;2.90;2.70;;;;;;;;;;5044738;28;20063;-68
2022/08/14 06:16:07;;;;;;;3.10;2.80;;;;;;;;;;5043443;28;20048;-69
2022/08/14 06:18:34;;;;;;;3.58;2.78;;;;;;;;;;5044256;28;20049;-69
2022/08/14 06:21:00;;;;;;;4.90;3.05;;;;;;;;;;5043271;28;20045;-69
2022/08/14 06:23:26;;;;;;;3.88;3.05;;;;;;;;;;5042995;28;20041;-70
2022/08/14 06:25:51;;;;;;;4.13;2.83;;;;;;;;;;5043049;28;20091;-69
2022/08/14 06:28:19;;;;;;;3.63;3.33;;;;;;;;;;5043303;28;20041;-69
2022/08/14 06:30:44;;;;;;;3.90;3.00;;;;;;;;;;5041981;28;20170;-69
2022/08/14 06:33:10;;;;;;;4.03;2.67;;;;;;;;;;5042417;28;20045;-69
2022/08/14 06:35:36;;;;;;;4.63;2.95;;;;;;;;;;5042833;28;20720;-70
2022/08/14 06:38:02;;;;;;;3.00;2.78;;;;;;;;;;5043510;28;20093;-69
2022/08/14 06:40:33;;;;;;;2.90;2.70;;;;;;;;;;5044623;28;20120;-69
2022/08/14 06:43:04;;;;;;;5.30;2.70;;;;;;;;;;5043676;28;20127;-69
2022/08/14 06:45:32;;;;;;;4.97;2.78;;;;;;;;;;5040512;28;20608;-70
2022/08/14 06:48:00;;;;;;;3.03;2.47;;;;;;;;;;5047542;28;20040;-70
2022/08/14 06:50:26;;;;;;;3.03;2.70;;;;;;;;;;5045846;28;20101;-71
2022/08/14 06:52:53;;;;;;;3.05;2.83;;;;;;;;;;5025390;28;20067;-71
2022/08/14 06:55:18;;;;;;;2.90;2.70;;;;;;;;;;5041303;28;20122;-72
2022/08/14 06:57:49;;;;;;;3.03;2.55;;;;;;;;;;5042833;28;20048;-69
2022/08/14 07:00:20;;;;;;;4.38;2.53;;;;;;;;;;5042990;28;20041;-71
2022/08/14 07:05:47;;;;;;;2.30;2.20;;;;;;;;;;5042208;28;20132;-69
2022/08/14 07:08:13;;;;;;;2.70;2.50;;;;;;;;;;5048309;28;20380;-69
2022/08/14 07:10:39;;;;;;;2.58;2.38;;;;;;;;;;5041244;28;20049;-71
2022/08/14 07:13:04;;;;;;;3.97;2.10;;;;;;;;;;5043460;28;20045;-70
2022/08/14 07:15:33;;;;;;;4.15;2.75;;;;;;;;;;5041719;28;20102;-69
2022/08/14 07:17:59;;;;;;;4.15;2.40;;;;;;;;;;5040649;28;20407;-72
2022/08/14 07:20:26;;;;;;;6.93;2.72;;;;;;;;;;5043635;28;20053;-71
2022/08/14 07:22:55;;;;;;;4.47;2.15;;;;;;;;;;5039669;28;20156;-70
2022/08/14 07:25:20;;;;;;;5.97;2.58;;;;;;;;;;5042383;28;20056;-71
2022/08/14 07:27:46;;;;;;;3.58;2.30;;;;;;;;;;5041992;28;20048;-71
2022/08/14 07:30:11;;;;;;;4.22;2.40;;;;;;;;;;5043343;28;20051;-69
2022/08/14 07:32:37;;;;;;;3.55;2.40;;;;;;;;;;5044299;28;20052;-68
2022/08/14 07:35:03;;;;;;;4.85;2.40;;;;;;;;;;5043815;28;20557;-69
2022/08/14 07:37:28;;;;;;;5.78;2.75;;;;;;;;;;5040043;28;20057;-70
2022/08/14 07:39:53;;;;;;;2.60;2.40;;;;;;;;;;5043423;28;20044;-70
2022/08/14 07:42:19;;;;;;;3.20;2.30;;;;;;;;;;5043101;28;20064;-70
2022/08/14 07:44:44;;;;;;;2.83;2.53;;;;;;;;;;5043260;28;20052;-69
2022/08/14 07:47:09;;;;;;;4.30;2.40;;;;;;;;;;5045047;28;20068;-70
2022/08/14 07:49:35;;;;;;;2.80;2.10;;;;;;;;;;5046356;28;20431;-71
2022/08/14 07:52:01;;;;;;;3.08;2.33;;;;;;;;;;5042636;28;20052;-71
2022/08/14 07:54:27;;;;;;;3.63;2.20;;;;;;;;;;5042416;28;20696;-71
2022/08/14 07:56:52;;;;;;;2.95;2.22;;;;;;;;;;5044069;28;20041;-71
2022/08/14 07:59:20;;;;;;;5.38;2.55;;;;;;;;;;5045834;28;20104;-71
2022/08/14 08:01:46;;;;;;;4.93;2.70;;;;;;;;;;5049054;28;20455;-70
2022/08/14 08:04:13;;;;;;;2.78;2.53;;;;;;;;;;5044502;28;20039;-68
2022/08/14 08:06:39;;;;;;;10.85;2.65;;;;;;;;;;5040836;28;20056;-68
2022/08/14 08:09:10;;;;;;;4.70;2.72;;;;;;;;;;5042372;28;20041;-69
2022/08/14 08:11:40;;;;;;;2.80;2.60;;;;;;;;;;5020448;28;20203;-70
2022/08/14 08:14:06;;;;;;;2.55;2.30;;;;;;;;;;5041244;28;20101;-69
2022/08/14 08:16:33;;;;;;;4.97;2.30;;;;;;;;;;5037177;28;21022;-70
2022/08/14 08:18:59;;;;;;;2.67;2.15;;;;;;;;;;5041282;28;20052;-71
2022/08/14 08:21:25;;;;;;;2.38;2.17;;;;;;;;;;5041102;28;20045;-70
2022/08/14 08:23:52;;;;;;;3.05;2.00;;;;;;;;;;5041872;28;20044;-73
2022/08/14 08:26:18;;;;;;;2.10;2.00;;;;;;;;;;5043387;28;20049;-72
2022/08/14 08:28:55;;;;;;;5.45;1.92;;;;;;;;;;5024136;28;20791;-70
2022/08/14 08:31:21;;;;;;;5.00;1.77;;;;;;;;;;5040295;28;21923;-71
2022/08/14 08:33:51;;;;;;;1.88;1.77;;;;;;;;;;5039290;28;20045;-72
2022/08/14 08:36:17;;;;;;;3.40;1.77;;;;;;;;;;5038048;28;20056;-70
2022/08/14 08:38:44;;;;;;;2.10;2.00;;;;;;;;;;5039516;28;20045;-69
2022/08/14 08:41:10;;;;;;;5.82;2.28;;;;;;;;;;5038778;28;20098;-69
2022/08/14 08:43:35;;;;;;;2.28;2.08;;;;;;;;;;5037586;28;20053;-69
2022/08/14 08:46:10;;;;;;;1.80;1.70;;;;;;;;;;5039489;28;20047;-70
2022/08/14 08:48:43;;;;;;;2.20;2.00;;;;;;;;;;5039472;28;20361;-69
2022/08/14 08:51:21;;;;;;;3.05;1.90;;;;;;;;;;5040513;28;20056;-70
2022/08/14 08:54:03;;;;;;;3.13;2.00;;;;;;;;;;5040508;28;20045;-69
2022/08/14 08:56:38;;;;;;;2.90;1.95;;;;;;;;;;5040396;28;20139;-70
2022/08/14 08:59:22;;;;;;;2.88;1.92;;;;;;;;;;5040885;28;20040;-70
2022/08/14 09:01:50;;;;;;;4.30;1.83;;;;;;;;;;5040369;28;20107;-70
2022/08/14 09:04:16;;;;;;;3.97;1.92;;;;;;;;;;5039372;28;20067;-70
2022/08/14 09:06:46;;;;;;;3.53;2.10;;;;;;;;;;5040402;28;20711;-70
2022/08/14 09:09:26;;;;;;;3.63;2.03;;;;;;;;;;5041254;28;20574;-70
2022/08/14 09:11:54;;;;;;;7.88;2.65;;;;;;;;;;5005598;28;20064;-71
2022/08/14 09:14:26;;;;;;;2.08;1.92;;;;;;;;;;5040849;28;20049;-71
2022/08/14 09:16:51;;;;;;;4.63;1.83;;;;;;;;;;5039441;28;20523;-70
2022/08/14 09:19:17;;;;;;;2.38;1.85;;;;;;;;;;5040766;28;20075;-70
2022/08/14 09:21:45;;;;;;;2.22;2.05;;;;;;;;;;5039851;28;20459;-70
2022/08/14 09:24:10;;;;;;;2.50;1.90;;;;;;;;;;5040721;28;20045;-70
2022/08/14 09:26:37;;;;;;;2.28;2.08;;;;;;;;;;5038807;28;20889;-70
2022/08/14 09:29:03;;;;;;;4.72;2.10;;;;;;;;;;5039348;28;20039;-70
2022/08/14 09:31:30;;;;;;;3.67;2.10;;;;;;;;;;5039608;28;20045;-70
2022/08/14 09:34:21;;;;;;;2.25;2.08;;;;;;;;;;5040279;28;20075;-69
2022/08/14 09:37:28;;;;;;;2.75;2.20;;;;;;;;;;5040394;28;20126;-71
2022/08/14 09:40:10;;;;;;;3.78;2.17;;;;;;;;;;5003251;28;20073;-70
2022/08/14 09:43:05;;;;;;;3.55;2.03;;;;;;;;;;5040765;28;20061;-70
2022/08/14 09:45:43;;;;;;;4.68;2.20;;;;;;;;;;5047568;28;20214;-69
2022/08/14 09:48:17;;;;;;;2.40;2.20;;;;;;;;;;5040077;28;20065;-70
2022/08/14 09:51:01;;;;;;;2.47;2.08;;;;;;;;;;5038142;28;20537;-69
2022/08/14 09:53:34;;;;;;;2.85;2.35;;;;;;;;;;5039283;28;20067;-69
2022/08/14 09:56:00;;;;;;;2.30;2.15;;;;;;;;;;5039872;28;20064;-69
2022/08/14 09:58:37;;;;;;;2.50;2.30;;;;;;;;;;5040080;28;20049;-72
2022/08/14 10:01:24;;;;;;;2.25;2.10;;;;;;;;;;5038690;28;20036;-72
2022/08/14 10:03:55;;;;;;;2.05;1.90;;;;;;;;;;5021315;28;20051;-70
2022/08/14 10:06:26;;;;;;;5.03;2.10;;;;;;;;;;5040027;28;20103;-70
2022/08/14 10:09:00;;;;;;;4.70;2.10;;;;;;;;;;5039774;28;20045;-70
2022/08/14 10:11:34;;;;;;;2.28;2.08;;;;;;;;;;5038547;28;20889;-70
2022/08/14 10:14:17;;;;;;;4.43;2.30;;;;;;;;;;5040163;28;20056;-71
2022/08/14 10:16:44;;;;;;;3.30;2.38;;;;;;;;;;5040092;28;20049;-70
2022/08/14 10:19:12;;;;;;;2.65;2.33;;;;;;;;;;5040560;28;20043;-70
2022/08/14 10:21:40;;;;;;;2.95;2.10;;;;;;;;;;5039228;28;20052;-69
2022/08/14 10:24:09;;;;;;;2.40;2.20;;;;;;;;;;5037336;28;20047;-70
2022/08/14 10:26:35;;;;;;;2.58;2.10;;;;;;;;;;5039873;28;20049;-70
2022/08/14 10:29:09;;;;;;;2.00;1.90;;;;;;;;;;5039754;28;20088;-70
2022/08/14 10:31:36;;;;;;;2.60;2.20;;;;;;;;;;5038549;28;20052;-70
2022/08/14 10:34:08;;;;;;;3.60;2.35;;;;;;;;;;5038141;28;20060;-71
2022/08/14 10:36:38;;;;;;;6.45;2.05;;;;;;;;;;5039585;28;20466;-70
2022/08/14 10:39:17;;;;;;;2.58;2.40;;;;;;;;;;5041467;28;20239;-70
2022/08/14 10:41:44;;;;;;;2.13;2.00;;;;;;;;;;5042696;28;20413;-71
2022/08/14 10:44:24;;;;;;;2.20;2.00;;;;;;;;;;5045475;28;20040;-70
2022/08/14 10:46:49;;;;;;;4.97;1.80;;;;;;;;;;5025020;28;20108;-70
2022/08/14 10:49:19;;;;;;;1.98;1.88;;;;;;;;;;5043358;28;20114;-70
2022/08/14 10:52:05;;;;;;;1.88;1.77;;;;;;;;;;5040958;28;20052;-70
2022/08/14 10:54:39;;;;;;;3.65;2.05;;;;;;;;;;5043186;28;20048;-70
2022/08/14 10:57:23;;;;;;;2.58;1.95;;;;;;;;;;5042556;28;20036;-70
2022/08/14 10:59:54;;;;;;;7.07;2.00;;;;;;;;;;5042654;28;20049;-70
2022/08/14 11:02:31;;;;;;;1.88;1.77;;;;;;;;;;5042739;28;20053;-70
2022/08/14 11:05:13;;;;;;;2.05;1.80;;;;;;;;;;5042794;28;20491;-70
2022/08/14 11:07:55;;;;;;;3.42;1.60;;;;;;;;;;5040257;28;20059;-70
2022/08/14 11:10:26;;;;;;;2.10;1.90;;;;;;;;;;5042905;28;20121;-70
2022/08/14 11:12:56;;;;;;;2.75;1.75;;;;;;;;;;5042836;28;20500;-70
2022/08/14 11:15:25;;;;;;;2.25;2.05;;;;;;;;;;5042049;28;20041;-70
2022/08/14 11:17:51;;;;;;;1.98;1.85;;;;;;;;;;5040305;28;20041;-70
2022/08/14 11:20:19;;;;;;;1.90;1.80;;;;;;;;;;5043245;28;20918;-69
2022/08/14 11:22:45;;;;;;;5.25;2.08;;;;;;;;;;5045346;28;20131;-69
2022/08/14 11:25:15;;;;;;;1.70;1.60;;;;;;;;;;5042764;28;20214;-70
2022/08/14 11:27:43;;;;;;;1.85;1.73;;;;;;;;;;5023832;28;20159;-69
2022/08/14 11:30:12;;;;;;;2.03;1.83;;;;;;;;;;5041036;28;20123;-69
2022/08/14 11:32:48;;;;;;;3.70;1.83;;;;;;;;;;5043253;28;20064;-71
2022/08/14 11:35:17;;;;;;;2.95;1.70;;;;;;;;;;5042571;28;20040;-70
2022/08/14 11:37:58;;;;;;;2.00;1.90;;;;;;;;;;5041707;28;20048;-70
2022/08/14 11:40:26;;;;;;;4.70;2.10;;;;;;;;;;5047440;28;20061;-70
2022/08/14 11:42:54;;;;;;;2.95;1.70;;;;;;;;;;5042251;28;20387;-70
2022/08/14 11:45:25;;;;;;;2.00;1.90;;;;;;;;;;5041231;28;20048;-72
2022/08/14 11:47:53;;;;;;;3.45;2.00;;;;;;;;;;5041890;28;20049;-69
2022/08/14 11:50:26;;;;;;;3.47;1.70;;;;;;;;;;5039961;28;20110;-70
2022/08/14 11:52:52;;;;;;;1.95;1.75;;;;;;;;;;5042289;28;21038;-70
2022/08/14 11:55:18;;;;;;;2.75;1.90;;;;;;;;;;5042172;28;20130;-72
2022/08/14 11:57:44;;;;;;;2.55;2.00;;;;;;;;;;5041544;28;20049;-69
2022/08/14 12:00:16;;;;;;;2.08;1.98;;;;;;;;;;5041805;28;20107;-69
2022/08/14 12:02:57;;;;;;;2.17;2.00;;;;;;;;;;5041809;28;20041;-69
2022/08/14 12:05:38;;;;;;;2.90;1.75;;;;;;;;;;5041162;28;20143;-68
2022/08/14 12:08:11;;;;;;;2.60;1.70;;;;;;;;;;5048892;28;20051;-69
2022/08/14 12:10:39;;;;;;;1.75;1.65;;;;;;;;;;5040150;28;20059;-68
2022/08/14 12:13:13;;;;;;;1.60;1.50;;;;;;;;;;5040879;28;20052;-68
2022/08/14 12:15:40;;;;;;;2.10;1.85;;;;;;;;;;5040813;28;20047;-68
2022/08/14 12:18:06;;;;;;;3.67;1.88;;;;;;;;;;5041246;28;20052;-70
2022/08/14 12:20:42;;;;;;;2.75;1.83;;;;;;;;;;5045653;28;20049;-72
2022/08/14 12:23:24;;;;;;;3.00;1.88;;;;;;;;;;5042214;28;20033;-71
2022/08/14 12:26:00;;;;;;;;;;;;;;;;;;5039265;28;20053;-71
2022/08/14 12:28:25;;;;;;;4.43;1.77;;;;;;;;;;5040776;28;19927;-70
2022/08/14 12:30:52;;;;;;;5.10;2.25;;;;;;;;;;5040486;28;20476;-70
2022/08/14 12:33:26;;;;;;;2.53;1.90;;;;;;;;;;5039709;28;20156;-70
2022/08/14 12:35:54;;;;;;;2.00;1.85;;;;;;;;;;5040607;28;20202;-70
2022/08/14 12:38:37;;;;;;;2.60;1.60;;;;;;;;;;5040994;28;20049;-71
2022/08/14 12:41:09;;;;;;;1.70;1.60;;;;;;;;;;5041756;28;20044;-69
2022/08/14 12:43:55;;;;;;;7.22;1.70;;;;;;;;;;5040862;28;20045;-69
2022/08/14 12:46:31;;;;;;;2.42;1.50;;;;;;;;;;5040571;28;20087;-69
2022/08/14 12:48:58;;;;;;;2.10;1.75;;;;;;;;;;5041509;28;20056;-69
2022/08/14 12:51:26;;;;;;;2.90;1.60;;;;;;;;;;5040604;28;20053;-69
2022/08/14 12:53:53;;;;;;;2.65;1.70;;;;;;;;;;5041473;28;20563;-69
2022/08/14 12:56:20;;;;;;;1.55;1.45;;;;;;;;;;5036567;28;20048;-69
2022/08/14 12:58:51;;;;;;;3.17;1.75;;;;;;;;;;5039543;28;20888;-69
2022/08/14 13:01:26;;;;;;;2.13;2.00;;;;;;;;;;5036805;28;20091;-69
2022/08/14 13:04:04;;;;;;;1.90;1.80;;;;;;;;;;5037165;28;20052;-70
2022/08/14 13:06:29;;;;;;;2.50;2.30;;;;;;;;;;5039882;28;20117;-72
2022/08/14 13:08:55;;;;;;;2.15;2.00;;;;;;;;;;5040698;28;20833;-71
2022/08/14 13:11:24;;;;;;;1.80;1.70;;;;;;;;;;5040145;28;20049;-72
2022/08/14 13:13:55;;;;;;;2.95;2.03;;;;;;;;;;5038581;28;20049;-68
2022/08/14 13:16:20;;;;;;;1.60;1.50;;;;;;;;;;5039948;28;20041;-71
2022/08/14 13:18:46;;;;;;;1.83;1.50;;;;;;;;;;5038681;28;20048;-71
2022/08/14 13:21:12;;;;;;;1.65;1.55;;;;;;;;;;5040611;28;20175;-69
2022/08/14 13:23:43;;;;;;;3.97;1.30;;;;;;;;;;5037895;28;20147;-69
2022/08/14 13:26:09;;;;;;;;;;;;;;;;;;5040108;28;20045;-69
2022/08/14 13:28:38;;;;;;;1.60;1.50;;;;;;;;;;5038875;28;19920;-69
2022/08/14 13:31:06;;;;;;;1.50;1.40;;;;;;;;;;5039837;28;20568;-69
2022/08/14 13:33:34;;;;;;;1.58;1.38;;;;;;;;;;5038037;28;20423;-69
2022/08/14 13:36:03;;;;;;;3.38;1.52;;;;;;;;;;5039154;28;20049;-69
2022/08/14 13:38:30;;;;;;;4.10;1.50;;;;;;;;;;5037731;28;20060;-70
2022/08/14 13:40:56;;;;;;;1.73;1.60;;;;;;;;;;5038004;28;20063;-70
2022/08/14 13:43:25;;;;;;;1.42;1.30;;;;;;;;;;5038407;28;20045;-70
2022/08/14 13:45:54;;;;;;;1.70;1.60;;;;;;;;;;5039086;28;20052;-70
2022/08/14 13:48:21;;;;;;;1.50;1.40;;;;;;;;;;5038173;28;20052;-70
2022/08/14 13:50:54;;;;;;;1.73;1.50;;;;;;;;;;5038784;28;20045;-69
2022/08/14 13:53:22;;;;;;;3.03;1.58;;;;;;;;;;5037602;28;20512;-70
2022/08/14 13:55:52;;;;;;;2.13;1.40;;;;;;;;;;5039379;28;20059;-70
2022/08/14 13:58:20;;;;;;;2.28;1.52;;;;;;;;;;5039707;28;20053;-70
2022/08/14 14:00:46;;;;;;;1.58;1.40;;;;;;;;;;5039054;28;20037;-70
2022/08/14 14:03:12;;;;;;;1.65;1.50;;;;;;;;;;5039670;28;20392;-70
2022/08/14 14:05:48;;;;;;;4.65;1.70;;;;;;;;;;5039223;28;20153;-70
2022/08/14 14:08:15;;;;;;;1.92;1.73;;;;;;;;;;5039895;28;20852;-70
2022/08/14 14:10:42;;;;;;;2.53;1.67;;;;;;;;;;5038020;28;20505;-71
2022/08/14 14:13:09;;;;;;;4.88;2.15;;;;;;;;;;5038413;28;20613;-72
2022/08/14 14:15:35;;;;;;;1.73;1.48;;;;;;;;;;5042360;28;20041;-71
2022/08/14 14:18:01;;;;;;;2.15;1.63;;;;;;;;;;5041484;28;20045;-70
2022/08/14 14:20:27;;;;;;;5.25;1.80;;;;;;;;;;5042489;28;20114;-71
2022/08/14 14:22:52;;;;;;;1.60;1.50;;;;;;;;;;5043125;28;20578;-71
2022/08/14 14:25:19;;;;;;;1.83;1.40;;;;;;;;;;5042326;28;20040;-71
2022/08/14 14:27:47;;;;;;;2.67;1.70;;;;;;;;;;5042301;28;20045;-71
2022/08/14 14:30:15;;;;;;;1.92;1.70;;;;;;;;;;5042300;28;20056;-71
2022/08/14 14:32:43;;;;;;;1.83;1.45;;;;;;;;;;5041939;28;20076;-71
2022/08/14 14:35:15;;;;;;;3.53;1.20;;;;;;;;;;5042305;28;20057;-70
2022/08/14 14:37:42;;;;;;;1.85;1.60;;;;;;;;;;5040871;28;20107;-71
2022/08/14 14:40:12;;;;;;;2.97;1.52;;;;;;;;;;5041926;28;20048;-71
2022/08/14 14:42:45;;;;;;;1.73;1.60;;;;;;;;;;5041164;28;20099;-70
2022/08/14 14:45:17;;;;;;;6.57;1.80;;;;;;;;;;5041707;28;20533;-70
2022/08/14 14:47:46;;;;;;;2.08;1.88;;;;;;;;;;5039928;28;20060;-71
2022/08/14 14:50:12;;;;;;;2.35;1.40;;;;;;;;;;5041859;28;20044;-71
2022/08/14 14:52:39;;;;;;;1.52;1.42;;;;;;;;;;5041381;28;20054;-71
2022/08/14 14:55:28;;;;;;;2.83;1.60;;;;;;;;;;5042373;28;20470;-71
2022/08/14 14:57:58;;;;;;;2.33;1.80;;;;;;;;;;5032662;28;20045;-70
2022/08/14 15:00:25;;;;;;;1.70;1.60;;;;;;;;;;5043439;28;20082;-71
2022/08/14 15:02:53;;;;;;;2.20;1.48;;;;;;;;;;5048213;28;20045;-68
2022/08/14 15:05:20;;;;;;;4.10;1.60;;;;;;;;;;5044334;28;20056;-68
2022/08/14 15:07:47;;;;;;;1.80;1.70;;;;;;;;;;5042165;28;20056;-70